Time;durP1;ratioP1;P1;durP2;ratioP2;P2;SDS_P1;SDS_P2;PMS_P1;PMS_P2;Temp;Humidity;BMP_temperature;BMP_pressure;BME280_temperature;BME280_humidity;BME280_pressure;Samples;Min_cycle;Max_cycle;Signal;HPM_P1;HPM_P2
2021/05/17 00:00:42;125599.00;0.42;217.74;0.00;0.00;0.62;;;;;13.90;1.00;;;;;;2253953;61;1164;-86
2021/05/17 00:03:09;138394.00;0.46;239.80;0.00;0.00;0.62;;;;;13.50;1.00;;;;;;2250794;61;1997;-87
2021/05/17 00:05:36;107689.00;0.36;186.84;0.00;0.00;0.62;;;;;13.40;1.00;;;;;;2254329;61;1448;-87
2021/05/17 00:08:04;253132.00;0.84;437.34;28529.00;0.10;50.04;;;;;13.50;1.00;;;;;;2258899;61;1228;-87
2021/05/17 00:10:31;176156.00;0.59;304.87;0.00;0.00;0.62;;;;;13.70;1.00;;;;;;2263093;61;1204;-87
2021/05/17 00:12:58;196665.00;0.66;340.18;15297.00;0.05;27.13;;;;;13.80;1.00;;;;;;2255582;61;1558;-88
2021/05/17 00:15:24;104861.00;0.35;181.96;0.00;0.00;0.62;;;;;13.70;1.00;;;;;;2262281;61;1342;-87
2021/05/17 00:17:54;454898.00;1.52;784.21;128078.00;0.43;222.01;;;;;13.70;1.00;;;;;;2251835;61;1239;-87
2021/05/17 00:20:23;71517.00;0.24;124.38;0.00;0.00;0.62;;;;;13.80;1.00;;;;;;2262961;61;1114;-87
2021/05/17 00:22:50;65188.00;0.22;113.44;0.00;0.00;0.62;;;;;13.90;1.00;;;;;;2250279;61;1132;-87
2021/05/17 00:25:22;64467.00;0.21;112.20;0.00;0.00;0.62;;;;;14.00;1.00;;;;;;2243321;61;1365;-87
2021/05/17 00:27:49;118880.00;0.40;206.15;0.00;0.00;0.62;;;;;14.30;1.00;;;;;;2250100;61;1178;-87
2021/05/17 00:30:17;122458.00;0.41;212.32;0.00;0.00;0.62;;;;;14.50;1.00;;;;;;2244155;61;1092;-87
2021/05/17 00:32:44;94846.00;0.32;164.67;0.00;0.00;0.62;;;;;14.50;1.00;;;;;;2250683;61;1240;-87
2021/05/17 00:35:15;112576.00;0.38;195.27;0.00;0.00;0.62;;;;;14.90;1.00;;;;;;2250653;61;1329;-87
2021/05/17 00:37:42;79536.00;0.27;138.24;0.00;0.00;0.62;;;;;15.00;1.00;;;;;;2250571;61;1112;-88
2021/05/17 00:40:11;32899.00;0.11;57.60;0.00;0.00;0.62;;;;;14.90;1.00;;;;;;2252856;61;1217;-87
2021/05/17 00:42:38;136113.00;0.45;235.87;0.00;0.00;0.62;;;;;14.90;1.00;;;;;;2263505;61;1239;-87
2021/05/17 00:45:07;97269.00;0.32;168.86;0.00;0.00;0.62;;;;;14.90;1.00;;;;;;2264910;61;2021;-87
2021/05/17 00:47:38;121065.00;0.40;209.92;0.00;0.00;0.62;;;;;14.70;1.00;;;;;;2264562;61;1109;-87
2021/05/17 00:50:06;68770.00;0.23;119.63;0.00;0.00;0.62;;;;;14.40;1.00;;;;;;2263408;61;1219;-87
2021/05/17 00:52:35;159958.00;0.53;276.97;0.00;0.00;0.62;;;;;14.10;1.00;;;;;;2262943;61;1248;-87
2021/05/17 00:55:01;143357.00;0.48;248.36;0.00;0.00;0.62;;;;;14.30;1.00;;;;;;2263526;61;1347;-87
2021/05/17 00:57:28;90403.00;0.30;157.00;0.00;0.00;0.62;;;;;14.30;1.00;;;;;;2263194;61;1145;-88
2021/05/17 00:59:55;144125.00;0.48;249.68;0.00;0.00;0.62;;;;;14.60;1.00;;;;;;2266048;61;1216;-86
2021/05/17 01:02:22;97060.00;0.32;168.50;0.00;0.00;0.62;;;;;14.70;1.00;;;;;;2265111;61;1216;-86
2021/05/17 01:04:48;132184.00;0.44;229.10;0.00;0.00;0.62;;;;;14.40;1.00;;;;;;2263823;61;1924;-87
2021/05/17 01:07:19;347722.00;1.16;599.95;57333.00;0.19;99.87;;;;;14.30;1.00;;;;;;2263156;61;1168;-87
2021/05/17 01:09:48;103949.00;0.35;180.39;0.00;0.00;0.62;;;;;14.20;1.00;;;;;;2263540;61;1105;-87
2021/05/17 01:12:16;125735.00;0.42;217.97;0.00;0.00;0.62;;;;;14.40;1.00;;;;;;2263185;61;1167;-87
2021/05/17 01:14:43;129158.00;0.43;223.88;0.00;0.00;0.62;;;;;14.40;1.00;;;;;;2263110;61;1364;-88
2021/05/17 01:17:13;228631.00;0.76;395.19;0.00;0.00;0.62;;;;;14.00;1.00;;;;;;2262709;61;1143;-87
2021/05/17 01:19:46;154285.00;0.51;267.19;0.00;0.00;0.62;;;;;13.80;1.00;;;;;;2263172;61;1145;-87
2021/05/17 01:22:21;166038.00;0.55;287.44;0.00;0.00;0.62;;;;;13.80;1.00;;;;;;2262814;61;1182;-87
2021/05/17 01:24:50;121759.00;0.41;211.12;0.00;0.00;0.62;;;;;13.70;1.00;;;;;;2262923;61;1938;-87
2021/05/17 01:27:17;113019.00;0.38;196.04;0.00;0.00;0.62;;;;;13.80;1.00;;;;;;2263674;61;1175;-87
2021/05/17 01:29:44;234494.00;0.78;405.28;0.00;0.00;0.62;;;;;14.00;1.00;;;;;;2263699;61;1181;-87
2021/05/17 01:32:12;165270.00;0.55;286.12;0.00;0.00;0.62;;;;;14.00;1.00;;;;;;2263464;61;1093;-87
2021/05/17 01:34:39;132349.00;0.44;229.38;0.00;0.00;0.62;;;;;13.80;1.00;;;;;;2263102;61;1387;-87
2021/05/17 01:37:08;108609.00;0.36;188.43;0.00;0.00;0.62;;;;;13.70;1.00;;;;;;2263074;61;1089;-87
2021/05/17 01:39:36;134207.00;0.45;232.58;0.00;0.00;0.62;;;;;13.60;1.00;;;;;;2263472;61;1152;-87
2021/05/17 01:42:05;135945.00;0.45;235.58;0.00;0.00;0.62;;;;;13.60;1.00;;;;;;2266364;61;1160;-87
2021/05/17 01:44:38;162897.00;0.54;282.03;0.00;0.00;0.62;;;;;13.40;1.00;;;;;;2264805;61;1921;-87
2021/05/17 01:47:05;90486.00;0.30;157.15;0.00;0.00;0.62;;;;;13.50;1.00;;;;;;2263302;61;1125;-87
2021/05/17 01:49:33;93812.00;0.31;162.89;0.00;0.00;0.62;;;;;13.60;1.00;;;;;;2265058;61;1147;-87
2021/05/17 01:52:02;196427.00;0.65;339.77;0.00;0.00;0.62;;;;;13.70;1.00;;;;;;2263447;61;1200;-87
2021/05/17 01:54:31;128499.00;0.43;222.74;0.00;0.00;0.62;;;;;13.80;1.00;;;;;;2259606;61;1391;-86
2021/05/17 01:56:58;82979.00;0.28;144.18;0.00;0.00;0.62;;;;;13.60;1.00;;;;;;2263857;61;1131;-87
2021/05/17 01:59:29;171485.00;0.57;296.82;0.00;0.00;0.62;;;;;13.90;1.00;;;;;;2263521;61;1184;-87
2021/05/17 02:01:55;109424.00;0.36;189.84;0.00;0.00;0.62;;;;;13.90;1.00;;;;;;2263580;61;1171;-87
2021/05/17 02:04:24;177086.00;0.59;306.47;0.00;0.00;0.62;;;;;13.70;1.00;;;;;;2263366;61;1938;-88
2021/05/17 02:06:51;151949.00;0.51;263.17;0.00;0.00;0.62;;;;;13.40;1.00;;;;;;2263251;61;1152;-87
2021/05/17 02:09:18;136922.00;0.46;237.26;0.00;0.00;0.62;;;;;13.40;1.00;;;;;;2253090;61;1181;-87
2021/05/17 02:11:44;176213.00;0.59;304.97;0.00;0.00;0.62;;;;;13.60;1.00;;;;;;2263566;61;1133;-87
2021/05/17 02:14:12;187174.00;0.62;323.84;0.00;0.00;0.62;;;;;13.70;1.00;;;;;;2264348;61;1292;-87
2021/05/17 02:16:40;216587.00;0.72;374.47;0.00;0.00;0.62;;;;;13.70;1.00;;;;;;2264201;61;1116;-87
2021/05/17 02:19:07;111565.00;0.37;193.53;0.00;0.00;0.62;;;;;13.60;1.00;;;;;;2263936;61;1195;-87
2021/05/17 02:21:34;114410.00;0.38;198.44;0.00;0.00;0.62;;;;;13.60;1.00;;;;;;2265629;61;1153;-87
2021/05/17 02:24:04;169193.00;0.56;292.88;0.00;0.00;0.62;;;;;13.90;1.00;;;;;;2266864;61;2002;-87
2021/05/17 02:26:30;172153.00;0.57;297.98;0.00;0.00;0.62;;;;;13.80;1.00;;;;;;2264240;61;1687;-87
2021/05/17 02:28:57;121882.00;0.41;211.33;0.00;0.00;0.62;;;;;13.90;1.00;;;;;;2264182;61;1093;-87
2021/05/17 02:31:24;102260.00;0.34;177.47;0.00;0.00;0.62;;;;;13.70;1.00;;;;;;2263442;61;1248;-86
2021/05/17 02:33:52;139053.00;0.46;240.94;0.00;0.00;0.62;;;;;13.30;1.00;;;;;;2263598;61;1349;-86
2021/05/17 02:36:19;180492.00;0.60;312.34;0.00;0.00;0.62;;;;;13.00;1.00;;;;;;2256521;61;1124;-86
2021/05/17 02:38:46;199044.00;0.66;344.28;0.00;0.00;0.62;;;;;13.00;1.00;;;;;;2256522;61;1426;-87
2021/05/17 02:41:16;86317.00;0.29;149.95;0.00;0.00;0.62;;;;;13.10;1.00;;;;;;2254064;61;1188;-86
2021/05/17 02:43:43;90133.00;0.30;156.54;0.00;0.00;0.62;;;;;13.40;1.00;;;;;;2256958;61;2001;-87
2021/05/17 02:46:10;147444.00;0.49;255.40;0.00;0.00;0.62;;;;;13.60;1.00;;;;;;2256615;61;1152;-87
2021/05/17 02:48:41;128761.00;0.43;223.19;0.00;0.00;0.62;;;;;13.70;1.00;;;;;;2264475;61;1148;-87
2021/05/17 02:51:11;100834.00;0.34;175.01;0.00;0.00;0.62;;;;;13.90;1.00;;;;;;2256696;61;1172;-87
2021/05/17 02:54:15;248206.00;0.83;428.87;0.00;0.00;0.62;;;;;13.60;1.00;;;;;;2256891;61;1256;-86
2021/05/17 02:57:08;117462.00;0.39;203.70;0.00;0.00;0.62;;;;;13.60;1.00;;;;;;2264132;61;1172;-86
2021/05/17 03:00:03;358335.00;1.19;618.19;76817.00;0.26;133.54;;;;;13.30;1.00;;;;;;2246980;61;1193;-87
2021/05/17 03:02:32;603072.00;2.01;1039.52;86539.00;0.29;150.33;;;;;13.10;1.00;;;;;;2226168;62;1190;-86
2021/05/17 03:05:00;502360.00;1.67;865.89;75907.00;0.25;131.97;;;;;13.40;1.00;;;;;;2234227;62;2018;-87
2021/05/17 03:07:34;491888.00;1.64;847.86;81800.00;0.27;142.15;;;;;13.80;1.00;;;;;;2231748;62;1573;-87
2021/05/17 03:10:04;403891.00;1.35;696.49;83973.00;0.28;145.90;;;;;14.10;1.00;;;;;;2224320;62;1265;-86
2021/05/17 03:12:34;454958.00;1.52;784.31;83851.00;0.28;145.69;;;;;14.20;1.00;;;;;;2231644;62;1137;-87
2021/05/17 03:15:01;504323.00;1.68;869.27;103732.00;0.35;180.01;;;;;13.90;1.00;;;;;;2224485;62;1458;-87
2021/05/17 03:17:28;400266.00;1.33;690.26;78838.00;0.26;137.03;;;;;13.80;1.00;;;;;;2231428;62;1261;-87
2021/05/17 03:19:55;293787.00;0.98;507.24;82745.00;0.28;143.78;;;;;14.00;1.00;;;;;;2230737;62;1110;-87
2021/05/17 03:22:24;374778.00;1.25;646.45;80398.00;0.27;139.72;;;;;13.90;1.00;;;;;;2225203;62;1174;-87
2021/05/17 03:24:54;380026.00;1.27;655.47;87490.00;0.29;151.97;;;;;14.00;1.00;;;;;;2231191;62;2029;-87
2021/05/17 03:27:22;458178.00;1.53;789.85;79723.00;0.27;138.56;;;;;14.10;1.00;;;;;;2222921;62;1064;-86
2021/05/17 03:29:50;453267.00;1.51;781.40;78782.00;0.26;136.93;;;;;13.90;1.00;;;;;;2216417;62;1150;-87
2021/05/17 03:32:17;472585.00;1.58;814.64;87094.00;0.29;151.29;;;;;13.60;1.00;;;;;;2213761;62;1265;-87
2021/05/17 03:34:44;718567.00;2.40;1239.45;209653.00;0.70;362.54;;;;;13.60;1.00;;;;;;2222707;62;1380;-86
2021/05/17 03:37:10;384083.00;1.28;662.44;81601.00;0.27;141.80;;;;;13.60;1.00;;;;;;2229926;62;1480;-87
2021/05/17 03:39:37;486645.00;1.62;838.83;84508.00;0.28;146.82;;;;;13.60;1.00;;;;;;2253997;61;1189;-87
2021/05/17 03:42:05;431185.00;1.44;743.42;87721.00;0.29;152.37;;;;;13.60;1.00;;;;;;2256438;61;1141;-87
2021/05/17 03:44:32;295329.00;0.98;509.89;75713.00;0.25;131.63;;;;;13.70;1.00;;;;;;2259670;61;1996;-86
2021/05/17 03:46:58;344592.00;1.15;594.57;71030.00;0.24;123.54;;;;;13.70;1.00;;;;;;2264966;61;1175;-86
2021/05/17 03:49:24;371307.00;1.24;640.48;76500.00;0.25;132.99;;;;;13.90;1.00;;;;;;2264317;61;1196;-86
2021/05/17 03:51:51;434356.00;1.45;748.88;126083.00;0.42;218.57;;;;;13.80;1.00;;;;;;2266438;61;1192;-87
2021/05/17 03:54:18;416081.00;1.39;717.45;80061.00;0.27;139.14;;;;;13.40;1.00;;;;;;2254584;61;1401;-87
2021/05/17 03:56:44;450479.00;1.50;776.61;100899.00;0.34;175.12;;;;;13.50;1.00;;;;;;2250789;61;1219;-87
2021/05/17 03:59:15;296682.00;0.99;512.22;83639.00;0.28;145.32;;;;;13.30;1.00;;;;;;2244731;61;1181;-88
2021/05/17 04:01:42;341895.00;1.14;589.93;77862.00;0.26;135.34;;;;;13.60;1.00;;;;;;2251314;61;1098;-87
2021/05/17 04:04:09;408805.00;1.36;704.94;75316.00;0.25;130.95;;;;;13.50;1.00;;;;;;2242672;61;1916;-87
2021/05/17 04:06:43;326670.00;1.09;563.76;80653.00;0.27;140.17;;;;;13.40;1.00;;;;;;2243352;61;1102;-88
2021/05/17 04:14:39;622304.00;2.07;1072.75;74398.00;0.25;129.36;;;;;13.30;1.00;;;;;;2243479;61;1458;-88
2021/05/17 04:17:07;202903.00;0.68;350.92;80986.00;0.27;140.74;;;;;13.30;1.00;;;;;;2248074;61;1074;-88
2021/05/17 04:19:33;254780.00;0.85;440.17;83612.00;0.28;145.28;;;;;13.40;1.00;;;;;;2245723;61;1024;-89
2021/05/17 04:22:00;382909.00;1.28;660.43;94111.00;0.31;163.41;;;;;13.50;1.00;;;;;;2249455;61;962;-89
2021/05/17 04:24:26;328068.00;1.09;566.17;97363.00;0.32;169.02;;;;;13.30;1.00;;;;;;2247713;61;1991;-88
2021/05/17 04:26:53;299123.00;1.00;516.41;36659.00;0.12;64.11;;;;;13.20;1.00;;;;;;2244358;61;1198;-87
2021/05/17 04:29:19;416942.00;1.39;718.93;84238.00;0.28;146.36;;;;;13.20;1.00;;;;;;2255880;61;1630;-88
2021/05/17 04:31:47;335849.00;1.12;579.54;80828.00;0.27;140.47;;;;;13.50;1.00;;;;;;2255839;61;1148;-88
2021/05/17 04:34:14;245117.00;0.82;423.55;82984.00;0.28;144.19;;;;;13.60;1.00;;;;;;2251768;61;1344;-88
2021/05/17 04:36:40;277038.00;0.92;478.44;79823.00;0.27;138.73;;;;;13.40;1.00;;;;;;2252549;61;1108;-87
2021/05/17 04:39:07;619269.00;2.06;1067.50;96285.00;0.32;167.16;;;;;13.50;1.00;;;;;;2254717;61;1579;-87
2021/05/17 04:41:34;273483.00;0.91;472.33;83404.00;0.28;144.92;;;;;13.40;1.00;;;;;;2245605;61;1157;-86
2021/05/17 04:44:00;298178.00;0.99;514.79;95857.00;0.32;166.42;;;;;13.10;1.00;;;;;;2253142;61;1920;-87
2021/05/17 04:46:27;346043.00;1.15;597.06;82584.00;0.28;143.50;;;;;12.60;1.00;;;;;;2242651;62;1165;-88
2021/05/17 04:48:54;437762.00;1.46;754.73;100143.00;0.33;173.82;;;;;12.40;1.00;;;;;;2236483;62;1306;-87
2021/05/17 04:51:22;361084.00;1.20;622.91;93309.00;0.31;162.02;;;;;12.50;1.00;;;;;;2239046;62;1158;-87
2021/05/17 04:53:49;351421.00;1.17;606.30;85046.00;0.28;147.75;;;;;12.70;1.00;;;;;;2239149;62;1247;-87
2021/05/17 04:56:16;295693.00;0.99;510.52;83947.00;0.28;145.85;;;;;13.10;1.00;;;;;;2235444;62;1067;-87
2021/05/17 04:58:42;290886.00;0.97;502.25;87545.00;0.29;152.07;;;;;12.90;1.00;;;;;;2238811;62;1257;-87
2021/05/17 05:01:09;305249.00;1.02;526.94;68189.00;0.23;118.63;;;;;12.60;1.00;;;;;;2246140;62;1215;-87
2021/05/17 05:03:35;283304.00;0.94;489.22;61028.00;0.20;106.25;;;;;12.80;1.00;;;;;;2240374;61;2013;-87
2021/05/17 05:06:03;319519.00;1.07;551.47;83474.00;0.28;145.04;;;;;13.20;1.00;;;;;;2259152;61;1392;-87
2021/05/17 05:08:30;355619.00;1.19;613.52;81377.00;0.27;141.42;;;;;13.20;1.00;;;;;;2262819;61;1267;-87
2021/05/17 05:10:56;368908.00;1.23;636.36;72231.00;0.24;125.62;;;;;13.30;1.00;;;;;;2259882;61;1196;-87
2021/05/17 05:13:23;287643.00;0.96;496.68;81805.00;0.27;142.16;;;;;13.10;1.00;;;;;;2260516;61;1085;-87
2021/05/17 05:15:54;390953.00;1.30;674.25;80805.00;0.27;140.43;;;;;13.40;1.00;;;;;;2267683;61;1353;-88
2021/05/17 05:18:21;475356.00;1.58;819.41;76625.00;0.26;133.21;;;;;13.90;1.00;;;;;;2268202;61;1188;-87
2021/05/17 05:20:48;450121.00;1.50;775.99;81248.00;0.27;141.19;;;;;13.90;1.00;;;;;;2268961;61;1077;-89
2021/05/17 05:23:17;286482.00;0.95;494.68;84830.00;0.28;147.38;;;;;14.00;1.00;;;;;;2268967;61;1104;-87
2021/05/17 05:26:14;423217.00;1.41;729.72;77459.00;0.26;134.65;;;;;13.70;1.00;;;;;;2261836;61;2013;-88
2021/05/17 05:28:52;433428.00;1.44;747.28;65522.00;0.22;114.02;;;;;14.20;1.00;;;;;;2264240;61;963;-89
2021/05/17 05:31:22;305930.00;1.02;528.11;0.00;0.00;0.62;;;;;14.20;1.00;;;;;;2260224;61;950;-89
2021/05/17 05:33:48;396627.00;1.32;684.01;78763.00;0.26;136.90;;;;;14.60;1.00;;;;;;2260404;61;1409;-90
2021/05/17 05:36:15;333850.00;1.11;576.10;84512.00;0.28;146.83;;;;;14.90;1.00;;;;;;2256356;61;1073;-89
2021/05/17 05:38:43;394140.00;1.31;679.73;86348.00;0.29;150.00;;;;;15.80;1.00;;;;;;2253159;61;1312;-89
2021/05/17 05:41:09;445650.00;1.49;768.30;88926.00;0.30;154.45;;;;;16.30;1.00;;;;;;2256087;61;1024;-88
2021/05/17 05:43:35;359686.00;1.20;620.51;77606.00;0.26;134.90;;;;;17.20;1.00;;;;;;2255662;61;2006;-87
2021/05/17 05:46:02;268629.00;0.90;463.99;78882.00;0.26;137.11;;;;;17.70;1.00;;;;;;2255287;61;1599;-88
2021/05/17 05:48:29;337389.00;1.12;582.19;85856.00;0.29;149.15;;;;;17.10;1.00;;;;;;2251164;61;1239;-87
2021/05/17 05:50:56;342518.00;1.14;591.00;85580.00;0.29;148.67;;;;;16.50;1.00;;;;;;2257644;61;1206;-87
2021/05/17 05:53:22;409611.00;1.37;706.33;83289.00;0.28;144.72;;;;;15.70;1.00;;;;;;2258579;61;1165;-87
2021/05/17 05:55:50;388276.00;1.29;669.65;85451.00;0.28;148.45;;;;;15.20;1.00;;;;;;2259824;61;1468;-87
2021/05/17 05:58:16;383524.00;1.28;661.48;85387.00;0.28;148.34;;;;;15.60;1.00;;;;;;2266472;61;1108;-86
2021/05/17 06:00:43;300905.00;1.00;519.48;85648.00;0.29;148.79;;;;;17.30;1.00;;;;;;2261874;61;1100;-88
2021/05/17 06:03:10;402507.00;1.34;694.11;93913.00;0.31;163.06;;;;;19.20;1.00;;;;;;2265525;61;1256;-87
2021/05/17 06:05:36;227728.00;0.76;393.64;90847.00;0.30;157.77;;;;;19.60;1.00;;;;;;2265252;61;1948;-87
2021/05/17 06:08:04;256443.00;0.85;443.03;77258.00;0.26;134.30;;;;;20.20;1.00;;;;;;2257440;61;1193;-87
2021/05/17 06:10:31;263092.00;0.88;454.47;72307.00;0.24;125.75;;;;;21.30;1.00;;;;;;2253318;61;1164;-88
2021/05/17 06:12:59;464179.00;1.55;800.17;78056.00;0.26;135.68;;;;;21.20;1.00;;;;;;2253243;61;1121;-89
2021/05/17 06:15:26;523757.00;1.75;902.74;174993.00;0.58;302.87;;;;;21.70;1.00;;;;;;2254701;61;1387;-88
2021/05/17 06:17:53;218344.00;0.73;377.49;81468.00;0.27;141.57;;;;;22.70;1.00;;;;;;2255066;61;1267;-89
2021/05/17 06:20:23;286294.00;0.95;494.36;76316.00;0.25;132.67;;;;;22.60;1.00;;;;;;2254660;61;1093;-88
2021/05/17 06:22:55;335779.00;1.12;579.42;81083.00;0.27;140.91;;;;;21.80;1.00;;;;;;2254029;61;1144;-88
2021/05/17 06:25:22;425899.00;1.42;734.33;85988.00;0.29;149.38;;;;;21.50;1.00;;;;;;2247205;61;2021;-89
2021/05/17 06:27:51;279940.00;0.93;483.43;78391.00;0.26;136.26;;;;;21.20;1.00;;;;;;2245640;61;1097;-88
2021/05/17 06:30:24;404043.00;1.35;696.76;78014.00;0.26;135.61;;;;;20.00;1.00;;;;;;2257843;61;1168;-87
2021/05/17 06:32:51;457307.00;1.52;788.35;59034.00;0.20;102.81;;;;;19.10;1.00;;;;;;2258096;61;1242;-86
2021/05/17 06:35:24;538859.00;1.80;928.76;107565.00;0.36;186.63;;;;;18.90;1.00;;;;;;2252164;61;1299;-86
2021/05/17 06:37:51;392727.00;1.31;677.30;74197.00;0.25;129.01;;;;;18.60;1.00;;;;;;2257286;61;1124;-86
2021/05/17 06:40:17;605893.00;2.02;1044.40;74739.00;0.25;129.95;;;;;17.90;1.00;;;;;;2250391;61;1264;-87
2021/05/17 06:42:44;307736.00;1.03;531.22;64644.00;0.22;112.50;;;;;17.40;1.00;;;;;;2253308;61;990;-87
2021/05/17 06:45:12;408353.00;1.36;704.17;59838.00;0.20;104.20;;;;;16.90;1.00;;;;;;2257332;61;1919;-87
2021/05/17 06:47:39;464877.00;1.55;801.38;75811.00;0.25;131.80;;;;;17.00;1.00;;;;;;2253716;61;1093;-87
2021/05/17 06:50:08;338231.00;1.13;583.63;89901.00;0.30;156.14;;;;;16.70;1.00;;;;;;2259200;61;1134;-87
2021/05/17 06:52:35;474531.00;1.58;817.99;117678.00;0.39;204.08;;;;;16.00;1.00;;;;;;2255371;61;1189;-87
2021/05/17 06:55:05;470279.00;1.57;810.67;79961.00;0.27;138.97;;;;;15.90;1.00;;;;;;2254910;61;1304;-88
2021/05/17 06:57:45;415191.00;1.38;715.92;60785.00;0.20;105.83;;;;;16.20;1.00;;;;;;2246296;62;1150;-87
2021/05/17 07:00:17;171766.00;0.57;297.31;0.00;0.00;0.62;;;;;16.40;1.00;;;;;;2245551;62;1152;-87
2021/05/17 07:02:46;468860.00;1.56;808.23;94433.00;0.31;163.96;;;;;16.80;1.00;;;;;;2241654;62;1026;-87
2021/05/17 07:05:15;345158.00;1.15;595.54;79244.00;0.26;137.73;;;;;16.60;1.00;;;;;;2240929;62;2007;-87
2021/05/17 07:07:51;292864.00;0.98;505.65;0.00;0.00;0.62;;;;;16.50;1.00;;;;;;2240995;62;1163;-88
2021/05/17 07:13:03;326484.00;1.09;563.44;0.00;0.00;0.62;;;;;16.50;1.00;;;;;;2248117;61;1065;-87
2021/05/17 07:15:30;347007.00;1.16;598.72;96670.00;0.32;167.82;;;;;16.60;1.00;;;;;;2245847;61;1376;-87
2021/05/17 07:17:57;450259.00;1.50;776.23;79578.00;0.27;138.31;;;;;16.90;1.00;;;;;;2250022;61;1240;-86
2021/05/17 07:20:28;468930.00;1.56;808.35;78436.00;0.26;136.34;;;;;17.10;1.00;;;;;;2243692;61;1298;-86
2021/05/17 07:25:39;502568.00;1.68;866.25;75270.00;0.25;130.87;;;;;17.30;1.00;;;;;;2256882;61;2015;-85
2021/05/17 07:28:06;322711.00;1.08;556.96;81233.00;0.27;141.17;;;;;17.10;1.00;;;;;;2256860;61;1105;-86
2021/05/17 07:30:33;534578.00;1.78;921.38;85462.00;0.28;148.47;;;;;17.20;1.00;;;;;;2256286;61;1206;-85
2021/05/17 07:38:11;302660.00;1.01;522.49;78760.00;0.26;136.90;;;;;17.00;1.00;;;;;;2264272;61;1277;-86
2021/05/17 07:40:38;249849.00;0.83;431.69;0.00;0.00;0.62;;;;;17.30;1.00;;;;;;2266992;61;1706;-86
2021/05/17 07:43:05;316542.00;1.06;546.35;0.00;0.00;0.62;;;;;17.30;1.00;;;;;;2262134;61;1065;-86
2021/05/17 07:45:31;579592.00;1.93;998.99;33621.00;0.11;58.85;;;;;17.40;1.00;;;;;;2258271;61;2021;-86
2021/05/17 07:47:58;161352.00;0.54;279.37;0.00;0.00;0.62;;;;;17.70;1.00;;;;;;2265349;61;1172;-86
2021/05/17 07:50:25;270533.00;0.90;467.26;0.00;0.00;0.62;;;;;18.10;1.00;;;;;;2266088;61;1121;-86
2021/05/17 07:52:51;284445.00;0.95;491.18;0.00;0.00;0.62;;;;;18.00;1.00;;;;;;2259273;61;1172;-86
2021/05/17 07:55:21;309926.00;1.03;534.98;0.00;0.00;0.62;;;;;17.70;1.00;;;;;;2267003;61;1347;-87
2021/05/17 07:57:48;211003.00;0.70;364.86;0.00;0.00;0.62;;;;;17.30;1.00;;;;;;2259288;61;1133;-86
2021/05/17 08:00:15;229926.00;0.77;397.42;0.00;0.00;0.62;;;;;17.10;1.00;;;;;;2268967;61;1186;-87
2021/05/17 08:02:42;206753.00;0.69;357.55;0.00;0.00;0.62;;;;;17.40;1.00;;;;;;2268820;61;1133;-88
2021/05/17 08:05:09;310034.00;1.03;535.17;0.00;0.00;0.62;;;;;18.10;1.00;;;;;;2268772;61;1935;-87
2021/05/17 08:07:36;269274.00;0.90;465.10;0.00;0.00;0.62;;;;;18.90;1.00;;;;;;2265713;61;1187;-87
2021/05/17 08:10:04;153591.00;0.51;266.00;0.00;0.00;0.62;;;;;19.40;1.00;;;;;;2258057;61;1067;-88
2021/05/17 08:12:31;200431.00;0.67;346.67;0.00;0.00;0.62;;;;;20.40;1.00;;;;;;2255598;61;1161;-87
2021/05/17 08:14:58;426873.00;1.42;736.01;73613.00;0.25;128.00;;;;;20.90;1.00;;;;;;2256787;61;1421;-88
2021/05/17 08:17:24;92207.00;0.31;160.12;0.00;0.00;0.62;;;;;21.40;1.00;;;;;;2256199;61;1141;-88
2021/05/17 08:19:51;153638.00;0.51;266.08;0.00;0.00;0.62;;;;;22.20;1.00;;;;;;2255602;61;1011;-88
2021/05/17 08:22:17;116259.00;0.39;201.63;0.00;0.00;0.62;;;;;22.40;1.00;;;;;;2243473;61;1022;-88
2021/05/17 08:24:44;219025.00;0.73;378.67;0.00;0.00;0.62;;;;;21.60;1.00;;;;;;2243541;61;2019;-88
2021/05/17 08:27:10;248933.00;0.83;430.12;0.00;0.00;0.62;;;;;20.70;1.00;;;;;;2243721;61;1108;-88
2021/05/17 08:29:39;294375.00;0.98;508.25;0.00;0.00;0.62;;;;;20.50;1.00;;;;;;2239805;61;1039;-89
2021/05/17 08:32:09;468611.00;1.56;807.80;71909.00;0.24;125.06;;;;;20.20;1.00;;;;;;2234279;61;1116;-88
2021/05/17 08:34:36;209786.00;0.70;362.77;0.00;0.00;0.62;;;;;19.40;1.00;;;;;;2240794;62;1368;-88
2021/05/17 08:37:03;298952.00;1.00;516.12;0.00;0.00;0.62;;;;;18.50;1.00;;;;;;2240933;61;975;-89
2021/05/17 08:39:30;144241.00;0.48;249.88;0.00;0.00;0.62;;;;;18.20;1.00;;;;;;2244951;61;1099;-89
2021/05/17 08:41:57;282291.00;0.94;487.48;0.00;0.00;0.62;;;;;18.50;1.00;;;;;;2251839;61;1028;-89
2021/05/17 08:44:28;223582.00;0.75;386.51;0.00;0.00;0.62;;;;;18.70;1.00;;;;;;2243820;61;2010;-89
2021/05/17 08:46:55;290234.00;0.97;501.13;0.00;0.00;0.62;;;;;18.80;1.00;;;;;;2245512;61;929;-89
2021/05/17 08:49:23;242105.00;0.81;418.37;0.00;0.00;0.62;;;;;19.20;1.00;;;;;;2243957;61;973;-89
2021/05/17 08:51:50;162003.00;0.54;280.49;0.00;0.00;0.62;;;;;19.60;1.00;;;;;;2243906;61;1033;-88
2021/05/17 08:54:16;253496.00;0.84;437.96;0.00;0.00;0.62;;;;;19.90;1.00;;;;;;2241274;61;1327;-89
2021/05/17 08:56:45;75499.00;0.25;131.26;0.00;0.00;0.62;;;;;20.10;1.00;;;;;;2245333;61;991;-89
2021/05/17 08:59:15;129445.00;0.43;224.37;0.00;0.00;0.62;;;;;20.00;1.00;;;;;;2251946;61;898;-89
2021/05/17 09:01:43;18145.00;0.06;32.06;0.00;0.00;0.62;;;;;20.40;1.00;;;;;;2248160;61;945;-86
2021/05/17 09:04:12;429420.00;1.43;740.39;0.00;0.00;0.62;;;;;20.00;1.00;;;;;;2246825;61;1927;-85
2021/05/17 09:06:41;63337.00;0.21;110.25;0.00;0.00;0.62;;;;;18.30;1.00;;;;;;2245091;61;1093;-86
2021/05/17 09:09:22;125434.00;0.42;217.46;0.00;0.00;0.62;;;;;17.30;1.00;;;;;;2255108;61;1157;-86
2021/05/17 09:11:49;117447.00;0.39;203.68;0.00;0.00;0.62;;;;;17.30;1.00;;;;;;2257426;61;1070;-89
2021/05/17 09:14:16;348596.00;1.16;601.45;0.00;0.00;0.62;;;;;17.90;1.00;;;;;;2252787;61;1518;-87
2021/05/17 09:16:47;97018.00;0.32;168.42;0.00;0.00;0.62;;;;;18.00;1.00;;;;;;2256213;61;1284;-88
2021/05/17 09:19:15;210704.00;0.70;364.35;0.00;0.00;0.62;;;;;18.50;1.00;;;;;;2249259;61;1089;-87
2021/05/17 09:22:04;142154.00;0.47;246.28;0.00;0.00;0.62;;;;;18.70;1.00;;;;;;2257942;61;1232;-86
2021/05/17 09:24:35;70464.00;0.23;122.56;0.00;0.00;0.62;;;;;19.10;1.00;;;;;;2257605;61;1924;-87
2021/05/17 09:27:02;81823.00;0.27;142.19;0.00;0.00;0.62;;;;;19.40;1.00;;;;;;2261059;61;1066;-87
2021/05/17 09:29:29;42595.00;0.14;74.38;0.00;0.00;0.62;;;;;19.10;1.00;;;;;;2263649;61;1153;-87
2021/05/17 09:31:55;216786.00;0.72;374.81;0.00;0.00;0.62;;;;;18.90;1.00;;;;;;2269370;61;1195;-87
2021/05/17 09:34:34;124006.00;0.41;214.99;0.00;0.00;0.62;;;;;18.70;1.00;;;;;;2270096;61;1250;-87
2021/05/17 09:37:06;37994.00;0.13;66.42;0.00;0.00;0.62;;;;;18.00;1.00;;;;;;2270786;61;1192;-87
2021/05/17 09:39:33;71168.00;0.24;123.78;0.00;0.00;0.62;;;;;18.30;1.00;;;;;;2263929;61;1014;-89
2021/05/17 09:42:03;134605.00;0.45;233.27;0.00;0.00;0.62;;;;;18.10;1.00;;;;;;2264022;61;1088;-88
2021/05/17 09:44:31;49265.00;0.16;85.92;0.00;0.00;0.62;;;;;18.40;1.00;;;;;;2256489;61;2002;-89
2021/05/17 09:47:02;96488.00;0.32;167.51;0.00;0.00;0.62;;;;;19.20;1.00;;;;;;2263187;61;964;-87
2021/05/17 09:49:34;11008.00;0.04;19.70;0.00;0.00;0.62;;;;;20.00;1.00;;;;;;2261758;61;1136;-87
2021/05/17 09:52:12;336490.00;1.12;580.64;0.00;0.00;0.62;;;;;19.50;1.00;;;;;;2260900;61;1109;-87
2021/05/17 09:55:00;190761.00;0.64;330.02;32400.00;0.11;56.74;;;;;19.30;1.00;;;;;;2255688;61;1498;-87
2021/05/17 09:57:30;42185.00;0.14;73.67;0.00;0.00;0.62;;;;;19.50;1.00;;;;;;2258349;61;1177;-88
2021/05/17 09:59:58;130986.00;0.44;227.03;0.00;0.00;0.62;;;;;19.70;1.00;;;;;;2259699;61;1282;-87
2021/05/17 10:02:32;165298.00;0.55;286.17;0.00;0.00;0.62;;;;;19.30;1.00;;;;;;2256972;61;1176;-87
2021/05/17 10:05:19;172579.00;0.58;298.71;0.00;0.00;0.62;;;;;18.20;1.00;;;;;;2260748;61;2007;-87